sensor_id;sensor_type;location;lat;lon;timestamp;P1;durP1;ratioP1;P2;durP2;ratioP2
22250;SDS011;59348;52.158;5.588;2022-11-11T00:01:34;19.00;;;9.63;;
22250;SDS011;59348;52.158;5.588;2022-11-11T00:04:01;16.73;;;9.43;;
22250;SDS011;59348;52.158;5.588;2022-11-11T00:06:28;22.45;;;10.23;;
22250;SDS011;59348;52.158;5.588;2022-11-11T00:08:57;16.38;;;9.82;;
22250;SDS011;59348;52.158;5.588;2022-11-11T00:11:24;19.05;;;10.52;;
22250;SDS011;59348;52.158;5.588;2022-11-11T00:13:52;18.13;;;10.10;;
22250;SDS011;59348;52.158;5.588;2022-11-11T00:16:20;16.55;;;10.45;;
22250;SDS011;59348;52.158;5.588;2022-11-11T00:18:47;19.80;;;11.68;;
22250;SDS011;59348;52.158;5.588;2022-11-11T00:21:29;18.35;;;11.23;;
22250;SDS011;59348;52.158;5.588;2022-11-11T00:24:20;18.75;;;12.07;;
22250;SDS011;59348;52.158;5.588;2022-11-11T00:27:02;19.38;;;11.63;;
22250;SDS011;59348;52.158;5.588;2022-11-11T00:29:29;23.27;;;12.45;;
22250;SDS011;59348;52.158;5.588;2022-11-11T00:31:57;21.17;;;12.77;;
22250;SDS011;59348;52.158;5.588;2022-11-11T00:34:38;19.98;;;13.52;;
22250;SDS011;59348;52.158;5.588;2022-11-11T00:37:25;23.10;;;13.82;;
22250;SDS011;59348;52.158;5.588;2022-11-11T00:39:53;22.80;;;13.90;;
22250;SDS011;59348;52.158;5.588;2022-11-11T00:42:20;22.65;;;14.93;;
22250;SDS011;59348;52.158;5.588;2022-11-11T00:44:47;27.58;;;15.88;;
22250;SDS011;59348;52.158;5.588;2022-11-11T00:47:14;26.20;;;15.60;;
22250;SDS011;59348;52.158;5.588;2022-11-11T00:49:56;30.38;;;16.35;;
22250;SDS011;59348;52.158;5.588;2022-11-11T00:52:37;26.08;;;16.38;;
22250;SDS011;59348;52.158;5.588;2022-11-11T00:55:06;26.77;;;16.95;;
22250;SDS011;59348;52.158;5.588;2022-11-11T00:57:33;23.48;;;17.45;;
22250;SDS011;59348;52.158;5.588;2022-11-11T01:00:01;26.17;;;17.83;;
22250;SDS011;59348;52.158;5.588;2022-11-11T01:02:28;28.40;;;18.45;;
22250;SDS011;59348;52.158;5.588;2022-11-11T01:04:55;30.58;;;19.42;;
22250;SDS011;59348;52.158;5.588;2022-11-11T01:07:22;30.90;;;18.65;;
22250;SDS011;59348;52.158;5.588;2022-11-11T01:09:50;29.98;;;18.95;;
22250;SDS011;59348;52.158;5.588;2022-11-11T01:12:18;32.55;;;20.42;;
22250;SDS011;59348;52.158;5.588;2022-11-11T01:14:46;30.98;;;19.60;;
22250;SDS011;59348;52.158;5.588;2022-11-11T01:17:13;32.97;;;20.95;;
22250;SDS011;59348;52.158;5.588;2022-11-11T01:19:40;30.63;;;21.55;;
22250;SDS011;59348;52.158;5.588;2022-11-11T01:22:08;31.17;;;21.23;;
22250;SDS011;59348;52.158;5.588;2022-11-11T01:24:35;33.40;;;21.75;;
22250;SDS011;59348;52.158;5.588;2022-11-11T01:27:03;37.75;;;22.60;;
22250;SDS011;59348;52.158;5.588;2022-11-11T01:29:31;36.90;;;22.83;;
22250;SDS011;59348;52.158;5.588;2022-11-11T01:31:59;35.30;;;23.70;;
22250;SDS011;59348;52.158;5.588;2022-11-11T01:34:26;34.60;;;23.02;;
22250;SDS011;59348;52.158;5.588;2022-11-11T01:36:53;37.33;;;23.23;;
22250;SDS011;59348;52.158;5.588;2022-11-11T01:39:21;35.58;;;24.35;;
22250;SDS011;59348;52.158;5.588;2022-11-11T01:41:48;42.25;;;23.95;;
22250;SDS011;59348;52.158;5.588;2022-11-11T01:44:18;40.83;;;24.35;;
22250;SDS011;59348;52.158;5.588;2022-11-11T01:46:48;38.00;;;24.27;;
22250;SDS011;59348;52.158;5.588;2022-11-11T01:49:19;39.88;;;24.42;;
22250;SDS011;59348;52.158;5.588;2022-11-11T01:51:48;37.15;;;25.25;;
22250;SDS011;59348;52.158;5.588;2022-11-11T01:54:18;35.25;;;23.95;;
22250;SDS011;59348;52.158;5.588;2022-11-11T01:56:48;34.40;;;24.65;;
22250;SDS011;59348;52.158;5.588;2022-11-11T01:59:16;34.88;;;24.65;;
22250;SDS011;59348;52.158;5.588;2022-11-11T02:01:44;35.53;;;24.90;;
22250;SDS011;59348;52.158;5.588;2022-11-11T02:04:13;38.25;;;25.33;;
22250;SDS011;59348;52.158;5.588;2022-11-11T02:06:55;39.88;;;25.42;;
22250;SDS011;59348;52.158;5.588;2022-11-11T02:09:23;39.03;;;26.23;;
22250;SDS011;59348;52.158;5.588;2022-11-11T02:11:52;41.03;;;27.02;;
22250;SDS011;59348;52.158;5.588;2022-11-11T02:14:34;41.53;;;27.65;;
22250;SDS011;59348;52.158;5.588;2022-11-11T02:17:07;40.10;;;26.95;;
22250;SDS011;59348;52.158;5.588;2022-11-11T02:19:40;39.88;;;26.63;;
22250;SDS011;59348;52.158;5.588;2022-11-11T02:22:10;42.53;;;27.13;;
22250;SDS011;59348;52.158;5.588;2022-11-11T02:24:39;40.63;;;26.35;;
22250;SDS011;59348;52.158;5.588;2022-11-11T02:27:08;40.30;;;27.63;;
22250;SDS011;59348;52.158;5.588;2022-11-11T02:29:36;41.97;;;28.17;;
22250;SDS011;59348;52.158;5.588;2022-11-11T02:32:04;42.25;;;27.30;;
22250;SDS011;59348;52.158;5.588;2022-11-11T02:34:31;46.22;;;27.75;;
22250;SDS011;59348;52.158;5.588;2022-11-11T02:36:59;39.63;;;26.67;;
22250;SDS011;59348;52.158;5.588;2022-11-11T02:39:28;41.67;;;28.35;;
22250;SDS011;59348;52.158;5.588;2022-11-11T02:41:57;43.38;;;28.10;;
22250;SDS011;59348;52.158;5.588;2022-11-11T02:44:25;44.78;;;27.73;;
22250;SDS011;59348;52.158;5.588;2022-11-11T02:46:52;41.78;;;27.35;;
22250;SDS011;59348;52.158;5.588;2022-11-11T02:49:20;45.75;;;28.08;;
22250;SDS011;59348;52.158;5.588;2022-11-11T02:51:47;40.40;;;28.23;;
22250;SDS011;59348;52.158;5.588;2022-11-11T02:54:14;42.50;;;27.80;;
22250;SDS011;59348;52.158;5.588;2022-11-11T02:56:41;41.17;;;27.65;;
22250;SDS011;59348;52.158;5.588;2022-11-11T02:59:24;39.90;;;26.25;;
22250;SDS011;59348;52.158;5.588;2022-11-11T03:01:51;40.40;;;26.90;;
22250;SDS011;59348;52.158;5.588;2022-11-11T03:04:19;43.50;;;27.70;;
22250;SDS011;59348;52.158;5.588;2022-11-11T03:06:46;41.17;;;26.98;;
22250;SDS011;59348;52.158;5.588;2022-11-11T03:09:13;47.17;;;27.05;;
22250;SDS011;59348;52.158;5.588;2022-11-11T03:11:40;42.50;;;27.00;;
22250;SDS011;59348;52.158;5.588;2022-11-11T03:14:08;38.10;;;25.35;;
22250;SDS011;59348;52.158;5.588;2022-11-11T03:16:36;38.50;;;25.88;;
22250;SDS011;59348;52.158;5.588;2022-11-11T03:19:17;41.00;;;25.45;;
22250;SDS011;59348;52.158;5.588;2022-11-11T03:21:45;40.58;;;25.38;;
22250;SDS011;59348;52.158;5.588;2022-11-11T03:24:11;34.35;;;25.08;;
22250;SDS011;59348;52.158;5.588;2022-11-11T03:26:38;36.35;;;25.10;;
22250;SDS011;59348;52.158;5.588;2022-11-11T03:29:05;35.72;;;23.95;;
22250;SDS011;59348;52.158;5.588;2022-11-11T03:31:32;39.80;;;23.88;;
22250;SDS011;59348;52.158;5.588;2022-11-11T03:34:02;36.63;;;24.20;;
22250;SDS011;59348;52.158;5.588;2022-11-11T03:36:44;32.60;;;24.23;;
22250;SDS011;59348;52.158;5.588;2022-11-11T03:39:25;34.65;;;23.33;;
22250;SDS011;59348;52.158;5.588;2022-11-11T03:41:52;37.95;;;24.65;;
22250;SDS011;59348;52.158;5.588;2022-11-11T03:44:19;39.22;;;24.50;;
22250;SDS011;59348;52.158;5.588;2022-11-11T03:46:47;38.78;;;24.45;;
22250;SDS011;59348;52.158;5.588;2022-11-11T03:49:15;36.92;;;23.55;;
22250;SDS011;59348;52.158;5.588;2022-11-11T03:51:43;38.10;;;23.77;;
22250;SDS011;59348;52.158;5.588;2022-11-11T03:54:10;40.90;;;23.88;;
22250;SDS011;59348;52.158;5.588;2022-11-11T03:56:37;34.40;;;23.65;;
22250;SDS011;59348;52.158;5.588;2022-11-11T03:59:05;36.33;;;23.25;;
22250;SDS011;59348;52.158;5.588;2022-11-11T04:01:32;35.25;;;22.65;;
22250;SDS011;59348;52.158;5.588;2022-11-11T04:04:13;35.63;;;22.65;;
22250;SDS011;59348;52.158;5.588;2022-11-11T04:06:56;36.10;;;21.55;;
22250;SDS011;59348;52.158;5.588;2022-11-11T04:09:37;34.53;;;22.05;;
22250;SDS011;59348;52.158;5.588;2022-11-11T04:12:18;35.15;;;21.15;;
22250;SDS011;59348;52.158;5.588;2022-11-11T04:14:46;33.65;;;20.83;;
22250;SDS011;59348;52.158;5.588;2022-11-11T04:17:27;32.95;;;21.65;;
22250;SDS011;59348;52.158;5.588;2022-11-11T04:19:54;30.85;;;20.58;;
22250;SDS011;59348;52.158;5.588;2022-11-11T04:22:40;35.35;;;21.63;;
22250;SDS011;59348;52.158;5.588;2022-11-11T04:25:07;31.55;;;21.73;;
22250;SDS011;59348;52.158;5.588;2022-11-11T04:27:48;33.85;;;21.98;;
22250;SDS011;59348;52.158;5.588;2022-11-11T04:30:36;32.30;;;20.60;;
22250;SDS011;59348;52.158;5.588;2022-11-11T04:33:02;31.90;;;21.02;;
22250;SDS011;59348;52.158;5.588;2022-11-11T04:35:29;32.55;;;21.58;;
22250;SDS011;59348;52.158;5.588;2022-11-11T04:37:58;33.58;;;20.83;;
22250;SDS011;59348;52.158;5.588;2022-11-11T04:40:39;39.67;;;21.85;;
22250;SDS011;59348;52.158;5.588;2022-11-11T04:43:20;31.95;;;20.33;;
22250;SDS011;59348;52.158;5.588;2022-11-11T04:45:47;30.55;;;20.65;;
22250;SDS011;59348;52.158;5.588;2022-11-11T04:48:14;29.63;;;20.42;;
22250;SDS011;59348;52.158;5.588;2022-11-11T04:50:42;33.78;;;21.48;;
22250;SDS011;59348;52.158;5.588;2022-11-11T04:53:12;35.38;;;21.50;;
22250;SDS011;59348;52.158;5.588;2022-11-11T04:55:40;31.15;;;21.05;;
22250;SDS011;59348;52.158;5.588;2022-11-11T04:58:22;36.90;;;21.42;;
22250;SDS011;59348;52.158;5.588;2022-11-11T05:00:49;35.72;;;21.45;;
22250;SDS011;59348;52.158;5.588;2022-11-11T05:03:17;33.85;;;21.33;;
22250;SDS011;59348;52.158;5.588;2022-11-11T05:05:46;31.20;;;20.45;;
22250;SDS011;59348;52.158;5.588;2022-11-11T05:08:29;32.53;;;20.75;;
22250;SDS011;59348;52.158;5.588;2022-11-11T05:11:10;30.42;;;20.98;;
22250;SDS011;59348;52.158;5.588;2022-11-11T05:13:37;36.60;;;21.90;;
22250;SDS011;59348;52.158;5.588;2022-11-11T05:16:19;33.03;;;21.02;;
22250;SDS011;59348;52.158;5.588;2022-11-11T05:19:01;30.70;;;20.00;;
22250;SDS011;59348;52.158;5.588;2022-11-11T05:21:42;37.60;;;20.55;;
22250;SDS011;59348;52.158;5.588;2022-11-11T05:24:11;33.38;;;20.95;;
22250;SDS011;59348;52.158;5.588;2022-11-11T05:26:53;27.90;;;19.33;;
22250;SDS011;59348;52.158;5.588;2022-11-11T05:29:20;31.00;;;19.92;;
22250;SDS011;59348;52.158;5.588;2022-11-11T05:31:48;31.75;;;19.92;;
22250;SDS011;59348;52.158;5.588;2022-11-11T05:34:15;27.27;;;19.60;;
22250;SDS011;59348;52.158;5.588;2022-11-11T05:36:42;29.23;;;19.73;;
22250;SDS011;59348;52.158;5.588;2022-11-11T05:39:11;29.67;;;19.65;;
22250;SDS011;59348;52.158;5.588;2022-11-11T05:41:38;31.05;;;20.15;;
22250;SDS011;59348;52.158;5.588;2022-11-11T05:44:05;31.13;;;19.30;;
22250;SDS011;59348;52.158;5.588;2022-11-11T05:46:33;31.13;;;19.25;;
22250;SDS011;59348;52.158;5.588;2022-11-11T05:49:00;30.23;;;19.05;;
22250;SDS011;59348;52.158;5.588;2022-11-11T05:51:41;30.92;;;18.77;;
22250;SDS011;59348;52.158;5.588;2022-11-11T05:54:08;31.05;;;18.75;;
22250;SDS011;59348;52.158;5.588;2022-11-11T05:56:37;31.77;;;18.50;;
22250;SDS011;59348;52.158;5.588;2022-11-11T05:59:05;31.05;;;18.60;;
22250;SDS011;59348;52.158;5.588;2022-11-11T06:01:32;29.95;;;18.20;;
22250;SDS011;59348;52.158;5.588;2022-11-11T06:04:00;30.88;;;18.95;;
22250;SDS011;59348;52.158;5.588;2022-11-11T06:06:27;32.03;;;19.08;;
22250;SDS011;59348;52.158;5.588;2022-11-11T06:08:54;25.77;;;17.45;;
22250;SDS011;59348;52.158;5.588;2022-11-11T06:11:21;32.22;;;18.67;;
22250;SDS011;59348;52.158;5.588;2022-11-11T06:13:50;28.58;;;18.80;;
22250;SDS011;59348;52.158;5.588;2022-11-11T06:16:18;29.50;;;18.05;;
22250;SDS011;59348;52.158;5.588;2022-11-11T06:18:45;30.00;;;18.75;;
22250;SDS011;59348;52.158;5.588;2022-11-11T06:21:12;31.98;;;19.10;;
22250;SDS011;59348;52.158;5.588;2022-11-11T06:23:40;29.10;;;18.25;;
22250;SDS011;59348;52.158;5.588;2022-11-11T06:26:08;27.65;;;17.92;;
22250;SDS011;59348;52.158;5.588;2022-11-11T06:28:38;27.92;;;18.35;;
22250;SDS011;59348;52.158;5.588;2022-11-11T06:31:07;30.17;;;18.35;;
22250;SDS011;59348;52.158;5.588;2022-11-11T06:33:35;26.23;;;17.98;;
22250;SDS011;59348;52.158;5.588;2022-11-11T06:36:03;27.70;;;17.85;;
22250;SDS011;59348;52.158;5.588;2022-11-11T06:38:31;30.95;;;18.20;;
22250;SDS011;59348;52.158;5.588;2022-11-11T06:40:59;28.85;;;18.23;;
22250;SDS011;59348;52.158;5.588;2022-11-11T06:43:26;26.17;;;17.98;;
22250;SDS011;59348;52.158;5.588;2022-11-11T06:45:53;25.77;;;18.40;;
22250;SDS011;59348;52.158;5.588;2022-11-11T06:48:23;32.45;;;17.98;;
22250;SDS011;59348;52.158;5.588;2022-11-11T06:50:50;26.35;;;18.15;;
22250;SDS011;59348;52.158;5.588;2022-11-11T06:53:18;33.67;;;18.73;;
22250;SDS011;59348;52.158;5.588;2022-11-11T06:55:46;25.05;;;17.60;;
22250;SDS011;59348;52.158;5.588;2022-11-11T06:58:14;26.52;;;17.75;;
22250;SDS011;59348;52.158;5.588;2022-11-11T07:00:42;30.33;;;18.05;;
22250;SDS011;59348;52.158;5.588;2022-11-11T07:03:10;33.53;;;18.45;;
22250;SDS011;59348;52.158;5.588;2022-11-11T07:05:39;28.85;;;18.05;;
22250;SDS011;59348;52.158;5.588;2022-11-11T07:08:08;29.23;;;17.75;;
22250;SDS011;59348;52.158;5.588;2022-11-11T07:10:36;27.42;;;17.73;;
22250;SDS011;59348;52.158;5.588;2022-11-11T07:13:04;35.88;;;18.70;;
22250;SDS011;59348;52.158;5.588;2022-11-11T07:15:31;27.63;;;17.65;;
22250;SDS011;59348;52.158;5.588;2022-11-11T07:17:59;31.73;;;17.83;;
22250;SDS011;59348;52.158;5.588;2022-11-11T07:20:26;23.65;;;17.80;;
22250;SDS011;59348;52.158;5.588;2022-11-11T07:22:55;28.23;;;18.17;;
22250;SDS011;59348;52.158;5.588;2022-11-11T07:25:22;29.52;;;17.58;;
22250;SDS011;59348;52.158;5.588;2022-11-11T07:27:50;27.13;;;18.25;;
22250;SDS011;59348;52.158;5.588;2022-11-11T07:30:17;28.92;;;17.98;;
22250;SDS011;59348;52.158;5.588;2022-11-11T07:32:45;29.00;;;17.80;;
22250;SDS011;59348;52.158;5.588;2022-11-11T07:35:12;28.00;;;18.02;;
22250;SDS011;59348;52.158;5.588;2022-11-11T07:37:40;32.45;;;18.52;;
22250;SDS011;59348;52.158;5.588;2022-11-11T07:40:10;27.75;;;17.67;;
22250;SDS011;59348;52.158;5.588;2022-11-11T07:42:38;27.38;;;18.60;;
22250;SDS011;59348;52.158;5.588;2022-11-11T07:45:06;26.90;;;18.02;;
22250;SDS011;59348;52.158;5.588;2022-11-11T07:47:34;27.55;;;17.98;;
22250;SDS011;59348;52.158;5.588;2022-11-11T07:50:01;27.40;;;18.38;;
22250;SDS011;59348;52.158;5.588;2022-11-11T07:52:29;31.98;;;19.02;;
22250;SDS011;59348;52.158;5.588;2022-11-11T07:54:56;33.13;;;18.85;;
22250;SDS011;59348;52.158;5.588;2022-11-11T07:57:25;33.22;;;18.98;;
22250;SDS011;59348;52.158;5.588;2022-11-11T07:59:52;30.88;;;18.50;;
22250;SDS011;59348;52.158;5.588;2022-11-11T08:02:19;31.38;;;19.15;;
22250;SDS011;59348;52.158;5.588;2022-11-11T08:04:47;31.17;;;18.30;;
22250;SDS011;59348;52.158;5.588;2022-11-11T08:07:14;29.70;;;18.15;;
22250;SDS011;59348;52.158;5.588;2022-11-11T08:09:41;28.05;;;18.15;;
22250;SDS011;59348;52.158;5.588;2022-11-11T08:12:08;29.52;;;18.83;;
22250;SDS011;59348;52.158;5.588;2022-11-11T08:14:51;29.60;;;18.52;;
22250;SDS011;59348;52.158;5.588;2022-11-11T08:17:18;31.13;;;18.38;;
22250;SDS011;59348;52.158;5.588;2022-11-11T08:19:46;29.50;;;19.10;;
22250;SDS011;59348;52.158;5.588;2022-11-11T08:22:13;30.45;;;18.88;;
22250;SDS011;59348;52.158;5.588;2022-11-11T08:24:40;30.13;;;19.08;;
22250;SDS011;59348;52.158;5.588;2022-11-11T08:27:08;30.20;;;17.90;;
22250;SDS011;59348;52.158;5.588;2022-11-11T08:29:35;27.70;;;17.90;;
22250;SDS011;59348;52.158;5.588;2022-11-11T08:32:04;28.30;;;18.25;;
22250;SDS011;59348;52.158;5.588;2022-11-11T08:34:32;35.10;;;18.48;;
22250;SDS011;59348;52.158;5.588;2022-11-11T08:37:00;24.73;;;16.95;;
22250;SDS011;59348;52.158;5.588;2022-11-11T08:39:27;29.25;;;18.00;;
22250;SDS011;59348;52.158;5.588;2022-11-11T08:41:54;28.52;;;18.33;;
22250;SDS011;59348;52.158;5.588;2022-11-11T08:44:21;28.77;;;17.90;;
22250;SDS011;59348;52.158;5.588;2022-11-11T08:46:49;27.27;;;17.40;;
22250;SDS011;59348;52.158;5.588;2022-11-11T08:49:16;25.27;;;17.13;;
22250;SDS011;59348;52.158;5.588;2022-11-11T08:51:45;24.60;;;17.73;;
22250;SDS011;59348;52.158;5.588;2022-11-11T08:54:13;27.40;;;17.55;;
22250;SDS011;59348;52.158;5.588;2022-11-11T08:56:41;26.75;;;17.60;;
22250;SDS011;59348;52.158;5.588;2022-11-11T08:59:08;25.02;;;17.40;;
22250;SDS011;59348;52.158;5.588;2022-11-11T09:01:36;28.52;;;17.23;;
22250;SDS011;59348;52.158;5.588;2022-11-11T09:04:03;23.38;;;16.75;;
22250;SDS011;59348;52.158;5.588;2022-11-11T09:06:30;28.50;;;17.35;;
22250;SDS011;59348;52.158;5.588;2022-11-11T09:08:58;23.95;;;16.60;;
22250;SDS011;59348;52.158;5.588;2022-11-11T09:11:26;26.63;;;16.90;;
22250;SDS011;59348;52.158;5.588;2022-11-11T09:14:00;24.95;;;16.42;;
22250;SDS011;59348;52.158;5.588;2022-11-11T09:16:27;23.30;;;16.77;;
22250;SDS011;59348;52.158;5.588;2022-11-11T09:18:54;24.77;;;17.02;;
22250;SDS011;59348;52.158;5.588;2022-11-11T09:21:22;25.05;;;17.00;;
22250;SDS011;59348;52.158;5.588;2022-11-11T09:23:49;27.42;;;17.05;;
22250;SDS011;59348;52.158;5.588;2022-11-11T09:26:16;21.63;;;16.63;;
22250;SDS011;59348;52.158;5.588;2022-11-11T09:28:45;25.85;;;16.13;;
22250;SDS011;59348;52.158;5.588;2022-11-11T09:31:12;25.48;;;16.90;;
22250;SDS011;59348;52.158;5.588;2022-11-11T09:33:40;23.70;;;17.10;;
22250;SDS011;59348;52.158;5.588;2022-11-11T09:36:07;24.35;;;16.95;;
22250;SDS011;59348;52.158;5.588;2022-11-11T09:38:34;24.67;;;16.85;;
22250;SDS011;59348;52.158;5.588;2022-11-11T09:41:06;26.73;;;16.95;;
22250;SDS011;59348;52.158;5.588;2022-11-11T09:43:40;21.88;;;16.17;;
22250;SDS011;59348;52.158;5.588;2022-11-11T09:46:13;24.05;;;16.45;;
22250;SDS011;59348;52.158;5.588;2022-11-11T09:48:47;22.08;;;15.63;;
22250;SDS011;59348;52.158;5.588;2022-11-11T09:51:17;23.77;;;15.77;;
22250;SDS011;59348;52.158;5.588;2022-11-11T09:53:48;21.88;;;15.65;;
22250;SDS011;59348;52.158;5.588;2022-11-11T09:56:17;24.92;;;16.15;;
22250;SDS011;59348;52.158;5.588;2022-11-11T09:58:45;26.23;;;16.05;;
22250;SDS011;59348;52.158;5.588;2022-11-11T10:01:15;24.88;;;15.40;;
22250;SDS011;59348;52.158;5.588;2022-11-11T10:03:44;20.70;;;15.07;;
22250;SDS011;59348;52.158;5.588;2022-11-11T10:06:14;25.17;;;15.10;;
22250;SDS011;59348;52.158;5.588;2022-11-11T10:08:45;22.77;;;15.18;;
22250;SDS011;59348;52.158;5.588;2022-11-11T10:11:15;22.45;;;15.50;;
22250;SDS011;59348;52.158;5.588;2022-11-11T10:13:43;20.48;;;14.77;;
22250;SDS011;59348;52.158;5.588;2022-11-11T10:16:13;19.35;;;14.63;;
22250;SDS011;59348;52.158;5.588;2022-11-11T10:18:49;25.73;;;14.30;;
22250;SDS011;59348;52.158;5.588;2022-11-11T10:21:22;19.73;;;14.45;;
22250;SDS011;59348;52.158;5.588;2022-11-11T10:23:49;21.85;;;14.60;;
22250;SDS011;59348;52.158;5.588;2022-11-11T10:26:19;21.48;;;14.13;;
22250;SDS011;59348;52.158;5.588;2022-11-11T10:28:47;20.00;;;13.82;;
22250;SDS011;59348;52.158;5.588;2022-11-11T10:31:17;19.98;;;13.70;;
22250;SDS011;59348;52.158;5.588;2022-11-11T10:33:46;18.98;;;14.15;;
22250;SDS011;59348;52.158;5.588;2022-11-11T10:36:18;20.13;;;14.13;;
22250;SDS011;59348;52.158;5.588;2022-11-11T10:38:48;15.98;;;13.02;;
22250;SDS011;59348;52.158;5.588;2022-11-11T10:41:17;17.67;;;13.45;;
22250;SDS011;59348;52.158;5.588;2022-11-11T10:43:45;19.73;;;13.63;;
22250;SDS011;59348;52.158;5.588;2022-11-11T10:46:14;18.00;;;13.45;;
22250;SDS011;59348;52.158;5.588;2022-11-11T10:48:44;18.52;;;13.00;;
22250;SDS011;59348;52.158;5.588;2022-11-11T10:51:13;18.65;;;13.10;;
22250;SDS011;59348;52.158;5.588;2022-11-11T10:53:45;18.00;;;12.77;;
22250;SDS011;59348;52.158;5.588;2022-11-11T10:56:17;19.35;;;13.10;;
22250;SDS011;59348;52.158;5.588;2022-11-11T10:58:47;22.90;;;13.73;;
22250;SDS011;59348;52.158;5.588;2022-11-11T11:01:19;17.38;;;12.52;;
22250;SDS011;59348;52.158;5.588;2022-11-11T11:03:49;15.15;;;12.20;;
22250;SDS011;59348;52.158;5.588;2022-11-11T11:06:18;17.10;;;12.70;;
22250;SDS011;59348;52.158;5.588;2022-11-11T11:08:50;18.02;;;12.23;;
22250;SDS011;59348;52.158;5.588;2022-11-11T11:11:18;17.27;;;12.43;;
22250;SDS011;59348;52.158;5.588;2022-11-11T11:13:47;18.42;;;12.10;;
22250;SDS011;59348;52.158;5.588;2022-11-11T11:16:17;17.55;;;12.93;;
22250;SDS011;59348;52.158;5.588;2022-11-11T11:18:48;16.95;;;12.23;;
22250;SDS011;59348;52.158;5.588;2022-11-11T11:21:46;18.92;;;12.90;;
22250;SDS011;59348;52.158;5.588;2022-11-11T11:24:19;17.75;;;11.98;;
22250;SDS011;59348;52.158;5.588;2022-11-11T11:26:47;15.95;;;12.13;;
22250;SDS011;59348;52.158;5.588;2022-11-11T11:29:22;22.40;;;13.02;;
22250;SDS011;59348;52.158;5.588;2022-11-11T11:31:51;14.77;;;12.10;;
22250;SDS011;59348;52.158;5.588;2022-11-11T11:34:19;17.05;;;12.80;;
22250;SDS011;59348;52.158;5.588;2022-11-11T11:39:33;16.25;;;12.73;;
22250;SDS011;59348;52.158;5.588;2022-11-11T11:42:01;18.90;;;12.65;;
22250;SDS011;59348;52.158;5.588;2022-11-11T11:44:29;18.23;;;12.50;;
22250;SDS011;59348;52.158;5.588;2022-11-11T11:47:00;17.85;;;12.18;;
22250;SDS011;59348;52.158;5.588;2022-11-11T11:49:34;17.83;;;11.95;;
22250;SDS011;59348;52.158;5.588;2022-11-11T11:52:05;20.67;;;13.07;;
22250;SDS011;59348;52.158;5.588;2022-11-11T11:54:40;18.98;;;12.68;;
22250;SDS011;59348;52.158;5.588;2022-11-11T11:57:12;17.38;;;12.65;;
22250;SDS011;59348;52.158;5.588;2022-11-11T11:59:45;17.30;;;12.52;;
22250;SDS011;59348;52.158;5.588;2022-11-11T12:02:20;18.83;;;12.95;;
22250;SDS011;59348;52.158;5.588;2022-11-11T12:04:57;18.65;;;12.70;;
22250;SDS011;59348;52.158;5.588;2022-11-11T12:07:34;18.27;;;13.05;;
22250;SDS011;59348;52.158;5.588;2022-11-11T12:10:06;19.55;;;12.80;;
22250;SDS011;59348;52.158;5.588;2022-11-11T12:12:38;20.00;;;12.73;;
22250;SDS011;59348;52.158;5.588;2022-11-11T12:15:09;20.75;;;12.85;;
22250;SDS011;59348;52.158;5.588;2022-11-11T12:17:43;18.58;;;12.43;;
22250;SDS011;59348;52.158;5.588;2022-11-11T12:20:14;18.83;;;13.00;;
22250;SDS011;59348;52.158;5.588;2022-11-11T12:22:47;19.05;;;12.70;;
22250;SDS011;59348;52.158;5.588;2022-11-11T12:25:17;19.73;;;12.77;;
22250;SDS011;59348;52.158;5.588;2022-11-11T12:27:51;17.38;;;11.90;;
22250;SDS011;59348;52.158;5.588;2022-11-11T12:30:21;16.30;;;12.77;;
22250;SDS011;59348;52.158;5.588;2022-11-11T12:32:57;17.50;;;11.98;;
22250;SDS011;59348;52.158;5.588;2022-11-11T12:35:33;20.85;;;12.25;;
22250;SDS011;59348;52.158;5.588;2022-11-11T12:38:08;15.38;;;11.90;;
22250;SDS011;59348;52.158;5.588;2022-11-11T12:40:42;17.52;;;12.30;;
22250;SDS011;59348;52.158;5.588;2022-11-11T12:43:17;18.23;;;12.45;;
22250;SDS011;59348;52.158;5.588;2022-11-11T12:45:51;18.75;;;11.73;;
22250;SDS011;59348;52.158;5.588;2022-11-11T12:51:08;16.95;;;12.43;;
22250;SDS011;59348;52.158;5.588;2022-11-11T12:53:39;21.35;;;12.57;;
22250;SDS011;59348;52.158;5.588;2022-11-11T12:56:12;17.73;;;12.65;;
22250;SDS011;59348;52.158;5.588;2022-11-11T12:58:45;16.58;;;12.25;;
22250;SDS011;59348;52.158;5.588;2022-11-11T13:01:17;17.48;;;11.88;;
22250;SDS011;59348;52.158;5.588;2022-11-11T13:03:48;16.38;;;11.77;;
22250;SDS011;59348;52.158;5.588;2022-11-11T13:06:22;23.52;;;12.40;;
22250;SDS011;59348;52.158;5.588;2022-11-11T13:08:59;16.83;;;11.35;;
22250;SDS011;59348;52.158;5.588;2022-11-11T13:11:30;15.98;;;11.75;;
22250;SDS011;59348;52.158;5.588;2022-11-11T13:14:03;18.95;;;11.90;;
22250;SDS011;59348;52.158;5.588;2022-11-11T13:16:32;18.15;;;11.43;;
22250;SDS011;59348;52.158;5.588;2022-11-11T13:18:59;17.88;;;11.75;;
22250;SDS011;59348;52.158;5.588;2022-11-11T13:21:31;17.17;;;11.52;;
22250;SDS011;59348;52.158;5.588;2022-11-11T13:24:00;16.77;;;11.25;;
22250;SDS011;59348;52.158;5.588;2022-11-11T13:26:29;15.90;;;11.15;;
22250;SDS011;59348;52.158;5.588;2022-11-11T13:29:04;16.73;;;11.40;;
22250;SDS011;59348;52.158;5.588;2022-11-11T13:31:37;15.35;;;10.90;;
22250;SDS011;59348;52.158;5.588;2022-11-11T13:34:08;16.33;;;11.10;;
22250;SDS011;59348;52.158;5.588;2022-11-11T13:36:40;18.65;;;11.35;;
22250;SDS011;59348;52.158;5.588;2022-11-11T13:39:15;15.60;;;11.23;;
22250;SDS011;59348;52.158;5.588;2022-11-11T13:41:44;18.20;;;11.65;;
22250;SDS011;59348;52.158;5.588;2022-11-11T13:44:18;17.33;;;11.23;;
22250;SDS011;59348;52.158;5.588;2022-11-11T13:46:47;17.48;;;11.18;;
22250;SDS011;59348;52.158;5.588;2022-11-11T13:49:20;13.35;;;10.60;;
22250;SDS011;59348;52.158;5.588;2022-11-11T13:51:57;14.30;;;9.88;;
22250;SDS011;59348;52.158;5.588;2022-11-11T13:54:25;17.00;;;10.88;;
22250;SDS011;59348;52.158;5.588;2022-11-11T13:56:59;16.50;;;10.50;;
22250;SDS011;59348;52.158;5.588;2022-11-11T13:59:28;19.95;;;11.30;;
22250;SDS011;59348;52.158;5.588;2022-11-11T14:10:03;14.10;;;9.45;;
22250;SDS011;59348;52.158;5.588;2022-11-11T14:12:33;14.35;;;10.18;;
22250;SDS011;59348;52.158;5.588;2022-11-11T14:15:00;14.98;;;10.38;;
22250;SDS011;59348;52.158;5.588;2022-11-11T14:17:32;16.67;;;10.07;;
22250;SDS011;59348;52.158;5.588;2022-11-11T14:22:41;14.75;;;10.48;;
22250;SDS011;59348;52.158;5.588;2022-11-11T14:25:13;15.05;;;9.90;;
22250;SDS011;59348;52.158;5.588;2022-11-11T14:27:45;15.50;;;9.90;;
22250;SDS011;59348;52.158;5.588;2022-11-11T14:30:26;17.15;;;10.25;;
22250;SDS011;59348;52.158;5.588;2022-11-11T14:32:54;14.88;;;10.13;;
22250;SDS011;59348;52.158;5.588;2022-11-11T14:35:27;16.05;;;10.27;;
22250;SDS011;59348;52.158;5.588;2022-11-11T14:38:02;16.13;;;10.90;;
22250;SDS011;59348;52.158;5.588;2022-11-11T14:40:32;13.95;;;10.75;;
22250;SDS011;59348;52.158;5.588;2022-11-11T14:43:01;16.38;;;10.55;;
22250;SDS011;59348;52.158;5.588;2022-11-11T14:45:50;15.27;;;10.50;;
22250;SDS011;59348;52.158;5.588;2022-11-11T14:51:00;17.30;;;10.00;;
22250;SDS011;59348;52.158;5.588;2022-11-11T14:53:30;14.90;;;9.88;;
22250;SDS011;59348;52.158;5.588;2022-11-11T14:56:01;15.27;;;9.52;;
22250;SDS011;59348;52.158;5.588;2022-11-11T14:58:32;14.38;;;9.40;;